Pelzer, South Carolina
Current Conditions -  °F | °C
As of 6:47 AM on Sunday 23 Nov 2014 (Local Time) from KGYH Reporting Station
Light Rain Light Rain  
Wind Chill:   Ceiling: 900
Heat Index:   Visibility: 7mi
Dew Point:   Wind: 9mph
Humidity: 87%   Direction: 40°NE
Pressure: 30.17"   Gusts: NA
Location:  34.64°N, 82.46°W
Report Text: KGYH 231147Z 04008KT 7SM -RA OVC009 04/02 A3017
Loading
Personal Weather Stations






























Interactive Weather Map New forecast layout! Learn more

10-Day Weather Forecast

Advertisements
Track Severe Weather on mobile